createdAt,value
2018-04-08T00:01:19.263Z,24.30
2018-04-08T00:03:47.682Z,24.50
2018-04-08T00:06:16.126Z,30.87
2018-04-08T00:08:44.608Z,24.33
2018-04-08T00:11:13.008Z,25.37
2018-04-08T00:13:41.413Z,27.40
2018-04-08T00:16:09.861Z,24.63
2018-04-08T00:18:38.316Z,25.00
2018-04-08T00:21:06.756Z,19.27
2018-04-08T00:23:35.207Z,24.77
2018-04-08T00:26:03.628Z,24.33
2018-04-08T00:28:32.081Z,22.90
2018-04-08T00:31:00.528Z,21.67
2018-04-08T00:33:28.927Z,21.40
2018-04-08T00:35:57.377Z,21.83
2018-04-08T00:38:25.849Z,21.77
2018-04-08T00:40:54.266Z,20.80
2018-04-08T00:43:22.715Z,23.33
2018-04-08T00:45:51.214Z,22.87
2018-04-08T00:48:19.637Z,19.83
2018-04-08T00:50:48.055Z,19.80
2018-04-08T00:53:16.590Z,22.53
2018-04-08T00:55:44.972Z,19.53
2018-04-08T00:58:13.130Z,19.60
2018-04-08T01:00:41.368Z,22.57
2018-04-08T01:03:09.478Z,20.83
2018-04-08T01:05:37.649Z,21.77
2018-04-08T01:08:05.880Z,21.87
2018-04-08T01:10:34.041Z,20.20
2018-04-08T01:13:02.565Z,21.37
2018-04-08T01:15:31.028Z,24.03
2018-04-08T01:17:59.178Z,21.03
2018-04-08T01:20:27.621Z,27.03
2018-04-08T01:22:56.097Z,23.50
2018-04-08T01:25:24.484Z,25.90
2018-04-08T01:27:52.936Z,20.30
2018-04-08T01:30:21.398Z,22.97
2018-04-08T01:32:49.824Z,24.80
2018-04-08T01:35:18.360Z,21.80
2018-04-08T01:37:46.738Z,24.60
2018-04-08T01:40:15.194Z,22.70
2018-04-08T01:42:43.669Z,24.37
2018-04-08T01:45:12.125Z,23.13
2018-04-08T01:47:40.562Z,21.63
2018-04-08T01:50:09.061Z,24.37
2018-04-08T01:52:37.456Z,22.53
2018-04-08T01:55:05.841Z,21.63
2018-04-08T01:57:34.224Z,23.63
2018-04-08T02:00:02.697Z,24.87
2018-04-08T02:02:31.146Z,27.57
2018-04-08T02:04:59.563Z,29.00
2018-04-08T02:07:28.022Z,23.47
2018-04-08T02:09:56.440Z,28.47
2018-04-08T02:12:24.866Z,26.50
2018-04-08T02:14:53.305Z,22.27
2018-04-08T02:17:21.753Z,29.07
2018-04-08T02:19:50.142Z,34.40
2018-04-08T02:22:18.572Z,28.83
2018-04-08T02:24:47.060Z,28.53
2018-04-08T02:27:15.496Z,24.87
2018-04-08T02:29:43.990Z,25.57
2018-04-08T02:32:12.404Z,27.60
2018-04-08T02:34:40.851Z,34.73
2018-04-08T02:37:09.472Z,25.53
2018-04-08T02:39:37.987Z,24.90
2018-04-08T02:42:06.435Z,26.73
2018-04-08T02:44:34.817Z,26.70
2018-04-08T02:47:03.249Z,24.87
2018-04-08T02:49:31.669Z,24.63
2018-04-08T02:52:00.133Z,22.67
2018-04-08T02:54:28.678Z,23.17
2018-04-08T02:56:57.184Z,27.33
2018-04-08T02:59:25.580Z,23.47
2018-04-08T03:01:54.137Z,21.33
2018-04-08T03:04:22.559Z,26.63
2018-04-08T03:06:51.019Z,24.40
2018-04-08T03:09:19.490Z,22.97
2018-04-08T03:11:47.876Z,27.40
2018-04-08T03:14:16.275Z,28.30
2018-04-08T03:16:44.695Z,25.80
2018-04-08T03:19:13.091Z,23.73
2018-04-08T03:21:41.537Z,26.70
2018-04-08T03:24:09.944Z,23.53
2018-04-08T03:26:38.397Z,23.83
2018-04-08T03:29:06.832Z,29.37
2018-04-08T03:31:35.310Z,24.63
2018-04-08T03:34:03.710Z,23.43
2018-04-08T03:36:32.320Z,27.50
2018-04-08T03:39:00.768Z,36.43
2018-04-08T03:41:29.220Z,32.40
2018-04-08T03:43:57.873Z,36.77
2018-04-08T03:46:26.281Z,24.23
2018-04-08T03:48:54.755Z,29.73
2018-04-08T03:51:23.224Z,28.30
2018-04-08T03:53:51.648Z,26.23
2018-04-08T03:56:20.100Z,27.17
2018-04-08T03:58:48.499Z,23.50
2018-04-08T04:01:16.923Z,33.67
2018-04-08T04:03:45.353Z,34.07
2018-04-08T04:06:13.797Z,27.73
2018-04-08T04:08:42.253Z,27.47
2018-04-08T04:11:10.763Z,29.13
2018-04-08T04:13:39.221Z,27.60
2018-04-08T04:16:07.656Z,27.33
2018-04-08T04:18:47.882Z,25.67
2018-04-08T04:24:39.354Z,35.13
2018-04-08T04:27:07.735Z,24.43
2018-04-08T04:29:36.194Z,25.10
2018-04-08T04:32:04.605Z,28.67
2018-04-08T04:34:33.085Z,25.27
2018-04-08T04:37:01.532Z,25.50
2018-04-08T04:39:29.951Z,27.73
2018-04-08T04:41:58.472Z,25.63
2018-04-08T04:44:26.912Z,28.73
2018-04-08T04:46:55.297Z,28.73
2018-04-08T04:49:23.717Z,29.63
2018-04-08T04:51:52.122Z,33.30
2018-04-08T04:54:20.578Z,27.57
2018-04-08T04:56:49.010Z,31.17
2018-04-08T04:59:17.384Z,34.20
2018-04-08T05:01:45.832Z,33.17
2018-04-08T05:04:14.377Z,32.93
2018-04-08T05:06:42.828Z,33.27
2018-04-08T05:09:11.233Z,33.20
2018-04-08T05:11:39.661Z,30.30
2018-04-08T05:14:08.093Z,29.00
2018-04-08T05:16:36.478Z,25.40
2018-04-08T05:19:04.929Z,30.03
2018-04-08T05:21:33.329Z,24.73
2018-04-08T05:24:01.912Z,26.33
2018-04-08T05:26:30.330Z,24.10
2018-04-08T05:28:58.712Z,28.63
2018-04-08T05:31:27.280Z,22.73
2018-04-08T05:33:55.739Z,25.27
2018-04-08T05:36:24.215Z,26.37
2018-04-08T05:38:52.608Z,33.23
2018-04-08T05:41:21.097Z,30.40
2018-04-08T05:43:49.500Z,28.73
2018-04-08T05:46:17.984Z,28.70
2018-04-08T05:48:46.435Z,29.63
2018-04-08T05:51:14.923Z,31.43
2018-04-08T05:53:43.439Z,29.77
2018-04-08T05:56:11.861Z,29.70
2018-04-08T05:58:40.300Z,30.67
2018-04-08T06:01:08.702Z,30.27
2018-04-08T06:03:37.175Z,25.93
2018-04-08T06:06:05.585Z,27.50
2018-04-08T06:08:33.972Z,30.30
2018-04-08T06:11:02.454Z,24.27
2018-04-08T06:13:30.856Z,37.87
2018-04-08T06:15:59.296Z,26.83
2018-04-08T06:18:27.760Z,26.70
2018-04-08T06:20:56.218Z,24.00
2018-04-08T06:23:24.661Z,24.90
2018-04-08T06:25:53.096Z,30.33
2018-04-08T06:28:21.545Z,35.40
2018-04-08T06:30:49.949Z,30.73
2018-04-08T06:33:18.379Z,28.50
2018-04-08T06:35:46.869Z,29.50
2018-04-08T06:38:15.356Z,32.53
2018-04-08T06:40:43.889Z,35.03
2018-04-08T06:43:12.400Z,25.53
2018-04-08T06:45:40.924Z,30.63
2018-04-08T06:48:09.390Z,29.57
2018-04-08T06:50:37.855Z,25.50
2018-04-08T06:53:06.294Z,29.40
2018-04-08T06:55:34.947Z,24.57
2018-04-08T06:58:03.399Z,23.87
2018-04-08T07:00:31.821Z,21.30
2018-04-08T07:03:00.228Z,21.73
2018-04-08T07:05:28.702Z,18.77
2018-04-08T07:07:57.087Z,18.43
2018-04-08T07:10:25.521Z,23.33
2018-04-08T07:12:54.056Z,22.27
2018-04-08T07:15:22.479Z,19.07
2018-04-08T07:17:50.953Z,20.27
2018-04-08T07:20:19.382Z,17.00
2018-04-08T07:22:47.848Z,13.53
2018-04-08T07:25:16.257Z,13.80
2018-04-08T07:27:44.665Z,15.80
2018-04-08T07:30:13.180Z,13.93
2018-04-08T07:32:41.695Z,15.03
2018-04-08T07:35:10.062Z,15.83
2018-04-08T07:37:38.516Z,16.53
2018-04-08T07:40:06.928Z,14.63
2018-04-08T07:42:35.385Z,9.10
2018-04-08T07:45:03.805Z,8.70
2018-04-08T07:47:32.239Z,10.23
2018-04-08T07:50:00.740Z,15.40
2018-04-08T07:52:29.144Z,12.80
2018-04-08T07:54:57.596Z,12.07
2018-04-08T07:57:25.985Z,13.53
2018-04-08T07:59:54.476Z,11.83
2018-04-08T08:02:22.899Z,19.10
2018-04-08T08:04:51.337Z,12.70
2018-04-08T08:07:19.730Z,18.63
2018-04-08T08:09:48.169Z,10.00
2018-04-08T08:12:16.598Z,12.67
2018-04-08T08:14:45.050Z,12.67
2018-04-08T08:17:13.445Z,12.40
2018-04-08T08:19:41.868Z,8.87
2018-04-08T08:22:10.302Z,15.77
2018-04-08T08:24:38.692Z,9.43
2018-04-08T08:27:07.074Z,10.80
2018-04-08T08:29:35.521Z,10.73
2018-04-08T08:32:03.916Z,8.23
2018-04-08T08:34:32.297Z,9.80
2018-04-08T08:37:00.740Z,12.50
2018-04-08T08:39:29.179Z,10.73
2018-04-08T08:41:57.613Z,4.83
2018-04-08T08:44:26.029Z,7.47
2018-04-08T08:46:54.470Z,11.00
2018-04-08T08:49:22.915Z,12.67
2018-04-08T08:51:51.301Z,9.53
2018-04-08T08:54:19.754Z,9.67
2018-04-08T08:56:48.157Z,9.53
2018-04-08T08:59:16.552Z,16.23
2018-04-08T09:01:45.011Z,6.87
2018-04-08T09:04:13.388Z,10.97
2018-04-08T09:06:41.903Z,7.47
2018-04-08T09:09:10.256Z,8.20
2018-04-08T09:11:38.679Z,6.50
2018-04-08T09:14:07.109Z,6.17
2018-04-08T09:16:35.533Z,6.50
2018-04-08T09:19:19.835Z,8.60
2018-04-08T09:21:53.641Z,10.07
2018-04-08T09:24:33.988Z,8.30
2018-04-08T09:27:02.384Z,7.27
2018-04-08T09:29:30.844Z,8.23
2018-04-08T09:31:59.370Z,7.27
2018-04-08T09:34:27.781Z,4.60
2018-04-08T09:36:56.334Z,8.83
2018-04-08T09:39:24.807Z,8.40
2018-04-08T09:41:53.200Z,6.83
2018-04-08T09:44:21.613Z,9.27
2018-04-08T09:46:50.025Z,5.13
2018-04-08T09:49:18.409Z,7.10
2018-04-08T09:51:46.840Z,8.73
2018-04-08T09:54:15.434Z,11.63
2018-04-08T09:56:43.869Z,8.00
2018-04-08T09:59:12.244Z,6.63
2018-04-08T10:01:55.617Z,7.10
2018-04-08T10:04:24.053Z,10.00
2018-04-08T10:06:52.501Z,5.40
2018-04-08T10:09:20.910Z,10.63
2018-04-08T10:11:49.390Z,7.27
2018-04-08T10:14:17.825Z,6.10
2018-04-08T10:16:46.198Z,9.17
2018-04-08T10:19:14.628Z,9.13
2018-04-08T10:21:43.030Z,6.77
2018-04-08T10:24:11.467Z,8.57
2018-04-08T10:26:39.873Z,14.60
2018-04-08T10:29:08.352Z,5.57
2018-04-08T10:31:36.731Z,5.87
2018-04-08T10:34:05.215Z,4.07
2018-04-08T10:36:33.649Z,5.40
2018-04-08T10:39:02.049Z,5.70
2018-04-08T10:41:30.500Z,9.40
2018-04-08T10:43:58.907Z,7.17
2018-04-08T10:46:27.322Z,6.83
2018-04-08T10:48:55.824Z,5.67
2018-04-08T10:51:24.315Z,10.17
2018-04-08T10:53:52.760Z,5.70
2018-04-08T10:56:21.449Z,7.37
2018-04-08T10:58:49.831Z,11.87
2018-04-08T11:01:18.316Z,11.53
2018-04-08T11:03:46.818Z,6.47
2018-04-08T11:06:15.456Z,4.73
2018-04-08T11:08:43.848Z,6.07
2018-04-08T11:11:12.325Z,8.97
2018-04-08T11:13:40.797Z,6.20
2018-04-08T11:16:09.220Z,4.97
2018-04-08T11:18:37.637Z,10.70
2018-04-08T11:21:06.089Z,8.17
2018-04-08T11:23:34.522Z,4.90
2018-04-08T11:26:02.925Z,11.20
2018-04-08T11:28:31.368Z,6.03
2018-04-08T11:30:59.750Z,9.50
2018-04-08T11:33:28.184Z,6.23
2018-04-08T11:35:56.608Z,6.97
2018-04-08T11:38:25.061Z,10.77
2018-04-08T11:40:53.436Z,7.20
2018-04-08T11:43:21.823Z,6.10
2018-04-08T11:45:50.271Z,7.57
2018-04-08T11:48:18.725Z,6.00
2018-04-08T11:50:47.100Z,4.70
2018-04-08T11:53:15.520Z,4.50
2018-04-08T11:55:43.941Z,8.10
2018-04-08T11:58:12.330Z,6.77
2018-04-08T12:00:40.812Z,5.33
2018-04-08T12:03:09.227Z,8.93
2018-04-08T12:05:37.687Z,7.22
2018-04-08T12:08:06.075Z,4.40
2018-04-08T12:10:34.572Z,7.00
2018-04-08T12:13:02.958Z,7.62
2018-04-08T12:15:31.405Z,12.88
2018-04-08T12:17:59.954Z,7.95
2018-04-08T12:20:28.420Z,7.40
2018-04-08T12:22:56.829Z,11.55
2018-04-08T12:25:25.304Z,6.12
2018-04-08T12:27:53.685Z,13.13
2018-04-08T12:30:22.065Z,4.85
2018-04-08T12:32:50.497Z,14.75
2018-04-08T12:35:19.009Z,5.75
2018-04-08T12:37:47.464Z,10.18
2018-04-08T12:40:15.913Z,12.23
2018-04-08T12:42:44.344Z,9.85
2018-04-08T12:45:12.774Z,12.60
2018-04-08T12:47:41.218Z,8.60
2018-04-08T12:50:09.604Z,8.32
2018-04-08T12:52:38.021Z,7.20
2018-04-08T12:55:06.401Z,12.48
2018-04-08T12:57:34.833Z,7.62
2018-04-08T13:00:03.298Z,4.93
2018-04-08T13:02:31.773Z,8.95
2018-04-08T13:05:00.205Z,4.78
2018-04-08T13:07:28.632Z,5.90
2018-04-08T13:09:57.098Z,12.40
2018-04-08T13:12:25.513Z,8.15
2018-04-08T13:14:53.914Z,7.40
2018-04-08T13:17:22.301Z,8.45
2018-04-08T13:19:50.721Z,4.00
2018-04-08T13:22:19.100Z,7.60
2018-04-08T13:24:47.529Z,7.50
2018-04-08T13:27:15.973Z,7.37
2018-04-08T13:29:44.353Z,6.68
2018-04-08T13:32:12.768Z,5.45
2018-04-08T13:34:41.172Z,9.77
2018-04-08T13:37:09.634Z,9.45
2018-04-08T13:39:38.032Z,8.15
2018-04-08T13:42:06.430Z,8.85
2018-04-08T13:44:34.872Z,18.10
2018-04-08T13:47:03.274Z,12.57
2018-04-08T13:49:31.705Z,11.27
2018-04-08T13:52:00.138Z,7.43
2018-04-08T13:54:28.561Z,7.25
2018-04-08T13:56:57.010Z,7.82
2018-04-08T13:59:25.424Z,5.00
2018-04-08T14:01:53.925Z,9.68
2018-04-08T14:04:22.364Z,7.35
2018-04-08T14:06:50.753Z,9.90
2018-04-08T14:09:19.172Z,5.95
2018-04-08T14:11:47.626Z,6.18
2018-04-08T14:14:15.996Z,6.28
2018-04-08T14:16:44.423Z,7.32
2018-04-08T14:19:12.846Z,7.57
2018-04-08T14:21:41.268Z,16.37
2018-04-08T14:24:09.797Z,8.13
2018-04-08T14:26:38.249Z,7.82
2018-04-08T14:29:06.695Z,7.95
2018-04-08T14:31:35.858Z,10.88
2018-04-08T14:34:05.341Z,8.35
2018-04-08T14:36:33.857Z,9.70
2018-04-08T14:39:02.313Z,8.55
2018-04-08T14:41:30.808Z,11.15
2018-04-08T14:43:59.239Z,7.32
2018-04-08T14:46:27.651Z,11.18
2018-04-08T14:48:57.093Z,9.52
2018-04-08T14:51:25.515Z,8.98
2018-04-08T14:53:55.186Z,7.68
2018-04-08T14:56:23.581Z,12.65
2018-04-08T14:58:51.990Z,8.90
2018-04-08T15:01:21.089Z,8.18
2018-04-08T15:03:49.477Z,9.80
2018-04-08T15:06:17.870Z,7.78
2018-04-08T15:08:46.333Z,9.38
2018-04-08T15:11:14.783Z,13.55
2018-04-08T15:13:43.200Z,8.63
2018-04-08T15:16:11.638Z,12.80
2018-04-08T15:18:40.066Z,9.80
2018-04-08T15:21:08.456Z,7.93
2018-04-08T15:23:37.313Z,10.95
2018-04-08T15:26:05.706Z,7.47
2018-04-08T15:28:34.084Z,8.70
2018-04-08T15:31:02.860Z,8.20
2018-04-08T15:33:31.297Z,13.80
2018-04-08T15:35:59.692Z,11.27
2018-04-08T15:38:28.912Z,11.12
2018-04-08T15:40:57.305Z,9.75
2018-04-08T15:43:25.694Z,17.55
2018-04-08T15:45:54.128Z,8.43
2018-04-08T15:48:22.577Z,14.35
2018-04-08T15:50:50.985Z,11.30
2018-04-08T15:53:19.456Z,11.43
2018-04-08T15:55:47.985Z,11.18
2018-04-08T15:58:16.376Z,11.12
2018-04-08T16:00:44.838Z,12.07
2018-04-08T16:03:13.287Z,11.70
2018-04-08T16:05:41.855Z,10.02
2018-04-08T16:08:10.253Z,10.63
2018-04-08T16:10:38.730Z,10.20
2018-04-08T16:13:07.354Z,15.57
2018-04-08T16:15:35.766Z,10.00
2018-04-08T16:18:04.232Z,8.10
2018-04-08T16:20:32.685Z,10.80
2018-04-08T16:23:01.134Z,13.87
2018-04-08T16:25:29.596Z,7.93
2018-04-08T16:27:58.019Z,8.67
2018-04-08T16:30:26.408Z,11.70
2018-04-08T16:32:54.931Z,10.67
2018-04-08T16:35:23.373Z,9.77
2018-04-08T16:37:51.816Z,14.37
2018-04-08T16:40:20.263Z,7.50
2018-04-08T16:42:48.683Z,10.17
2018-04-08T16:45:17.083Z,13.33
2018-04-08T16:47:45.544Z,13.77
2018-04-08T16:50:13.920Z,13.57
2018-04-08T16:52:42.354Z,12.27
2018-04-08T16:55:10.759Z,11.40
2018-04-08T16:57:39.226Z,9.33
2018-04-08T17:00:07.630Z,17.90
2018-04-08T17:02:36.049Z,17.70
2018-04-08T17:05:04.485Z,9.07
2018-04-08T17:07:33.028Z,10.47
2018-04-08T17:10:01.483Z,8.23
2018-04-08T17:12:29.884Z,9.23
2018-04-08T17:14:58.263Z,13.33
2018-04-08T17:17:26.762Z,18.77
2018-04-08T17:19:55.210Z,12.73
2018-04-08T17:22:23.606Z,13.13
2018-04-08T17:24:52.059Z,9.13
2018-04-08T17:27:20.695Z,13.97
2018-04-08T17:29:49.145Z,8.10
2018-04-08T17:32:17.648Z,12.57
2018-04-08T17:34:46.044Z,9.63
2018-04-08T17:37:14.476Z,10.90
2018-04-08T17:39:42.949Z,15.13
2018-04-08T17:42:11.422Z,13.23
2018-04-08T17:44:39.885Z,13.73
2018-04-08T17:47:08.280Z,13.83
2018-04-08T17:49:36.863Z,15.00
2018-04-08T17:52:05.339Z,22.07
2018-04-08T17:54:33.769Z,10.37
2018-04-08T17:57:02.225Z,9.97
2018-04-08T17:59:30.610Z,11.13
2018-04-08T18:01:59.056Z,8.13
2018-04-08T18:04:27.513Z,15.47
2018-04-08T18:06:56.382Z,14.20
2018-04-08T18:09:26.327Z,20.87
2018-04-08T18:11:54.819Z,13.97
2018-04-08T18:14:23.263Z,14.93
2018-04-08T18:16:51.664Z,12.13
2018-04-08T18:19:20.073Z,9.77
2018-04-08T18:21:48.544Z,11.20
2018-04-08T18:24:16.942Z,12.97
2018-04-08T18:26:45.388Z,8.40
2018-04-08T18:29:13.802Z,14.07
2018-04-08T18:31:42.239Z,8.03
2018-04-08T18:34:10.629Z,13.83
2018-04-08T18:36:39.131Z,16.07
2018-04-08T18:39:07.753Z,10.73
2018-04-08T18:41:36.212Z,14.00
2018-04-08T18:44:04.660Z,12.43
2018-04-08T18:46:33.084Z,12.23
2018-04-08T18:49:01.539Z,18.10
2018-04-08T18:51:30.008Z,12.30
2018-04-08T18:53:58.456Z,11.43
2018-04-08T18:56:26.943Z,8.97
2018-04-08T18:58:55.542Z,15.47
2018-04-08T19:01:23.980Z,13.00
2018-04-08T19:03:52.389Z,11.33
2018-04-08T19:06:20.857Z,9.50
2018-04-08T19:08:49.527Z,14.43
2018-04-08T19:11:18.121Z,13.13
2018-04-08T19:13:46.777Z,16.00
2018-04-08T19:16:15.239Z,14.47
2018-04-08T19:18:43.665Z,12.03
2018-04-08T19:21:12.094Z,8.10
2018-04-08T19:23:40.589Z,10.07
2018-04-08T19:26:09.058Z,7.93
2018-04-08T19:28:37.462Z,9.13
2018-04-08T19:31:05.902Z,12.20
2018-04-08T19:33:34.329Z,8.67
2018-04-08T19:36:02.769Z,10.80
2018-04-08T19:38:31.174Z,7.63
2018-04-08T19:40:59.623Z,9.13
2018-04-08T19:43:28.028Z,10.97
2018-04-08T19:45:56.425Z,9.60
2018-04-08T19:48:24.892Z,17.73
2018-04-08T19:50:53.305Z,12.57
2018-04-08T19:53:21.762Z,7.63
2018-04-08T19:55:50.121Z,9.37
2018-04-08T19:58:18.554Z,10.23
2018-04-08T20:00:47.298Z,9.70
2018-04-08T20:03:15.759Z,13.50
2018-04-08T20:05:44.166Z,10.83
2018-04-08T20:08:12.591Z,10.17
2018-04-08T20:10:41.021Z,11.00
2018-04-08T20:13:09.456Z,12.90
2018-04-08T20:15:37.908Z,7.93
2018-04-08T20:18:06.332Z,15.30
2018-04-08T20:20:34.748Z,10.60
2018-04-08T20:23:03.168Z,12.13
2018-04-08T20:25:31.605Z,13.30
2018-04-08T20:28:00.064Z,11.93
2018-04-08T20:30:28.458Z,12.57
2018-04-08T20:32:56.975Z,8.37
2018-04-08T20:35:25.381Z,11.87
2018-04-08T20:37:53.830Z,12.90
2018-04-08T20:40:22.319Z,7.90
2018-04-08T20:42:50.759Z,11.00
2018-04-08T20:45:19.139Z,12.27
2018-04-08T20:47:47.601Z,9.13
2018-04-08T20:50:15.986Z,7.63
2018-04-08T20:52:44.390Z,12.63
2018-04-08T20:55:12.844Z,10.37
2018-04-08T20:57:41.240Z,10.53
2018-04-08T21:00:09.754Z,12.23
2018-04-08T21:02:38.153Z,7.30
2018-04-08T21:05:06.590Z,8.47
2018-04-08T21:07:34.961Z,7.17
2018-04-08T21:10:03.368Z,6.50
2018-04-08T21:12:31.840Z,8.20
2018-04-08T21:15:00.221Z,6.33
2018-04-08T21:17:28.699Z,6.80
2018-04-08T21:19:57.105Z,6.73
2018-04-08T21:22:25.488Z,8.63
2018-04-08T21:24:53.924Z,7.30
2018-04-08T21:27:22.341Z,6.67
2018-04-08T21:29:50.780Z,10.60
2018-04-08T21:32:19.281Z,6.50
2018-04-08T21:34:47.768Z,6.80
2018-04-08T21:37:16.370Z,15.67
2018-04-08T21:39:44.794Z,7.67
2018-04-08T21:42:13.177Z,9.90
2018-04-08T21:44:41.676Z,7.87
2018-04-08T21:47:10.128Z,7.87
2018-04-08T21:49:38.585Z,5.77
2018-04-08T21:52:07.002Z,8.60
2018-04-08T21:54:35.383Z,10.73
2018-04-08T21:57:03.840Z,8.63
2018-04-08T21:59:32.221Z,6.33
2018-04-08T22:02:00.634Z,8.40
2018-04-08T22:04:29.036Z,5.67
2018-04-08T22:06:57.457Z,9.30
2018-04-08T22:09:25.895Z,7.60
2018-04-08T22:11:54.308Z,7.07
2018-04-08T22:14:22.706Z,5.07
2018-04-08T22:16:51.162Z,8.10
2018-04-08T22:19:19.626Z,7.53
2018-04-08T22:21:48.065Z,9.20
2018-04-08T22:24:16.503Z,9.40
2018-04-08T22:26:44.906Z,10.10
2018-04-08T22:29:13.357Z,8.53
2018-04-08T22:31:41.737Z,6.40
2018-04-08T22:34:10.176Z,6.80
2018-04-08T22:36:38.571Z,6.23
2018-04-08T22:39:07.013Z,10.73
2018-04-08T22:41:35.478Z,4.70
2018-04-08T22:44:03.970Z,7.00
2018-04-08T22:46:32.404Z,6.83
2018-04-08T22:49:00.833Z,8.93
2018-04-08T22:51:29.242Z,6.43
2018-04-08T22:53:57.699Z,6.57
2018-04-08T22:56:26.082Z,7.83
2018-04-08T22:58:54.508Z,8.37
2018-04-08T23:01:22.957Z,5.80
2018-04-08T23:03:51.383Z,6.40
2018-04-08T23:06:19.804Z,12.73
2018-04-08T23:08:48.235Z,9.07
2018-04-08T23:11:16.662Z,7.90
2018-04-08T23:13:45.061Z,6.70
2018-04-08T23:16:13.501Z,7.53
2018-04-08T23:18:41.995Z,9.13
2018-04-08T23:21:10.402Z,10.57
2018-04-08T23:23:38.872Z,8.07
2018-04-08T23:26:07.279Z,7.57
2018-04-08T23:28:35.694Z,9.73
2018-04-08T23:31:04.150Z,13.30
2018-04-08T23:33:32.541Z,12.20
2018-04-08T23:36:00.965Z,12.80
2018-04-08T23:38:29.410Z,11.80
2018-04-08T23:40:57.805Z,16.43
2018-04-08T23:43:26.223Z,11.00
2018-04-08T23:45:54.633Z,8.20
2018-04-08T23:48:23.096Z,11.77
2018-04-08T23:50:51.480Z,8.70
2018-04-08T23:53:19.931Z,13.00
2018-04-08T23:55:48.316Z,12.07
2018-04-08T23:58:16.761Z,11.53
